Time;durP1;ratioP1;P1;durP2;ratioP2;P2;SDS_P1;SDS_P2;PMS_P1;PMS_P2;Temp;Humidity;BMP_temperature;BMP_pressure;BME280_temperature;BME280_humidity;BME280_pressure;Samples;Min_cycle;Max_cycle;Signal;HPM_P1;HPM_P2
2023/06/25 00:02:04;;;;;;;2.17;2.08;;;28.70;45.90;;;;;;5033324;28;20533;-77
2023/06/25 00:04:29;;;;;;;2.53;2.30;;;28.70;45.80;;;;;;5032977;28;20033;-73
2023/06/25 00:06:55;;;;;;;2.85;2.65;;;28.60;45.80;;;;;;5032854;28;20084;-73
2023/06/25 00:09:20;;;;;;;2.58;2.38;;;28.60;45.80;;;;;;5032489;28;20037;-73
2023/06/25 00:11:46;;;;;;;2.65;2.25;;;28.60;45.80;;;;;;5032601;28;20057;-73
2023/06/25 00:14:12;;;;;;;2.72;2.50;;;28.60;45.80;;;;;;5032704;28;20041;-72
2023/06/25 00:16:37;;;;;;;2.42;2.20;;;28.60;45.80;;;;;;5032690;28;20380;-72
2023/06/25 00:19:03;;;;;;;2.90;2.60;;;28.60;45.80;;;;;;5032779;28;20037;-73
2023/06/25 00:21:29;;;;;;;4.85;2.65;;;28.60;45.90;;;;;;5033223;28;20057;-77
2023/06/25 00:23:55;;;;;;;2.70;2.50;;;28.60;45.90;;;;;;5032818;28;20021;-77
2023/06/25 00:26:21;;;;;;;2.72;2.53;;;28.60;45.90;;;;;;5032737;28;20036;-76
2023/06/25 00:28:46;;;;;;;3.05;2.35;;;28.50;45.80;;;;;;5033018;28;20026;-77
2023/06/25 00:31:12;;;;;;;2.67;2.47;;;28.60;46.50;;;;;;5032772;28;20056;-72
2023/06/25 00:33:42;;;;;;;3.20;2.75;;;28.50;45.90;;;;;;5032666;28;20053;-72
2023/06/25 00:36:08;;;;;;;2.65;2.45;;;28.50;45.80;;;;;;5032116;28;20025;-72
2023/06/25 00:38:38;;;;;;;2.60;2.40;;;28.50;45.80;;;;;;5032295;28;20113;-74
2023/06/25 00:41:06;;;;;;;2.50;2.30;;;28.50;45.90;;;;;;5032225;28;20033;-72
2023/06/25 00:43:32;;;;;;;2.55;2.33;;;28.50;45.90;;;;;;5032139;28;20072;-72
2023/06/25 00:45:57;;;;;;;2.17;2.08;;;28.50;46.00;;;;;;5032041;28;20087;-72
2023/06/25 00:48:23;;;;;;;2.50;2.30;;;28.50;46.00;;;;;;5032679;28;20183;-76
2023/06/25 00:50:50;;;;;;;2.47;2.28;;;28.40;45.90;;;;;;5032296;28;20026;-77
2023/06/25 00:53:16;;;;;;;2.47;2.33;;;28.50;46.00;;;;;;5032592;28;20048;-77
2023/06/25 00:55:42;;;;;;;2.53;2.33;;;28.40;45.90;;;;;;5032122;28;20048;-77
2023/06/25 00:58:08;;;;;;;2.72;2.53;;;28.40;45.80;;;;;;5032273;28;20104;-78
2023/06/25 01:00:34;;;;;;;2.35;2.15;;;28.40;46.00;;;;;;5032346;28;20025;-77
2023/06/25 01:03:09;;;;;;;2.47;2.28;;;28.40;46.10;;;;;;5032082;28;20438;-77
2023/06/25 01:05:43;;;;;;;2.13;2.03;;;28.40;46.00;;;;;;5031970;28;20060;-76
2023/06/25 01:08:10;;;;;;;2.47;2.28;;;28.40;45.90;;;;;;5031857;28;20029;-76
2023/06/25 01:10:36;;;;;;;2.50;2.30;;;28.30;46.00;;;;;;5031539;28;20488;-77
2023/06/25 01:13:02;;;;;;;2.88;2.67;;;28.30;45.80;;;;;;5031888;28;20045;-77
2023/06/25 01:15:28;;;;;;;2.90;2.70;;;28.30;45.90;;;;;;5031816;28;20132;-77
2023/06/25 01:17:54;;;;;;;2.40;2.20;;;28.30;45.90;;;;;;5032189;28;20091;-72
2023/06/25 01:20:21;;;;;;;2.72;2.53;;;28.30;46.00;;;;;;5031461;28;20138;-73
2023/06/25 01:22:48;;;;;;;2.20;2.10;;;;;;;;;;5031207;28;20109;-72
2023/06/25 01:25:14;;;;;;;2.53;2.33;;;29.70;46.50;;;;;;5031608;28;20538;-72
2023/06/25 01:27:40;;;;;;;2.28;2.08;;;28.30;46.20;;;;;;5031482;28;20033;-72
2023/06/25 01:30:06;;;;;;;2.60;2.40;;;28.20;46.10;;;;;;5031788;28;20036;-76
2023/06/25 01:32:32;;;;;;;2.40;2.25;;;28.20;46.00;;;;;;5031953;28;20033;-77
2023/06/25 01:34:58;;;;;;;2.13;2.03;;;28.20;46.00;;;;;;5031674;28;20034;-77
2023/06/25 01:37:23;;;;;;;2.15;1.98;;;28.20;46.00;;;;;;5031859;28;20029;-77
2023/06/25 01:39:51;;;;;;;2.60;2.40;;;28.20;46.00;;;;;;5031691;28;20025;-77
2023/06/25 01:42:17;;;;;;;2.40;2.20;;;28.10;46.00;;;;;;5031825;28;20327;-77
2023/06/25 01:44:46;;;;;;;2.05;1.95;;;28.10;45.60;;;;;;5031804;28;20722;-76
2023/06/25 01:47:12;;;;;;;2.40;2.20;;;28.10;46.20;;;;;;5031811;28;20040;-76
2023/06/25 01:49:38;;;;;;;2.10;2.00;;;28.10;46.00;;;;;;5031782;28;20017;-77
2023/06/25 01:52:04;;;;;;;2.40;2.30;;;28.10;46.20;;;;;;5031817;28;20079;-77
2023/06/25 01:54:29;;;;;;;2.47;2.28;;;28.10;46.10;;;;;;5031843;28;20076;-77
2023/06/25 01:56:56;;;;;;;3.67;2.20;;;28.10;46.00;;;;;;5031623;28;20022;-73
2023/06/25 01:59:21;;;;;;;2.10;2.00;;;28.00;46.00;;;;;;5031479;28;20496;-72
2023/06/25 02:01:47;;;;;;;2.67;2.20;;;28.00;46.20;;;;;;5031353;28;20026;-72
2023/06/25 02:04:13;;;;;;;2.38;2.17;;;28.00;46.10;;;;;;5031291;28;20499;-72
2023/06/25 02:06:39;;;;;;;2.55;2.35;;;28.00;46.20;;;;;;5031136;28;20448;-72
2023/06/25 02:09:04;;;;;;;2.30;2.17;;;28.00;46.20;;;;;;5031104;28;20332;-72
2023/06/25 02:11:30;;;;;;;2.10;2.00;;;27.10;45.60;;;;;;5030550;28;20495;-72
2023/06/25 02:13:55;;;;;;;2.03;1.92;;;27.90;46.20;;;;;;5030127;28;20504;-73
2023/06/25 02:16:21;;;;;;;4.18;2.58;;;27.90;46.10;;;;;;5030341;28;20036;-73
2023/06/25 02:18:48;;;;;;;2.40;2.20;;;27.90;46.30;;;;;;5030253;28;20029;-73
2023/06/25 02:21:13;;;;;;;2.50;2.30;;;27.90;46.20;;;;;;5030202;28;20176;-73
2023/06/25 02:23:39;;;;;;;2.50;2.30;;;27.90;46.10;;;;;;5030194;28;20101;-73
2023/06/25 02:26:04;;;;;;;2.38;2.17;;;27.90;46.30;;;;;;5030054;28;20130;-73
2023/06/25 02:28:30;;;;;;;2.92;2.38;;;27.90;46.20;;;;;;5030125;28;20033;-73
2023/06/25 02:30:56;;;;;;;2.38;2.25;;;27.90;46.20;;;;;;5030092;28;20025;-73
2023/06/25 02:33:21;;;;;;;2.10;2.00;;;27.90;47.10;;;;;;5032996;28;20072;-77
2023/06/25 02:35:47;;;;;;;2.53;2.33;;;27.80;46.20;;;;;;5033801;28;20041;-77
2023/06/25 02:38:13;;;;;;;2.58;2.28;;;27.80;46.80;;;;;;5033879;28;20084;-77
2023/06/25 02:40:38;;;;;;;2.22;2.10;;;27.80;46.20;;;;;;5033823;28;20033;-77
2023/06/25 02:43:04;;;;;;;2.40;2.20;;;27.80;46.30;;;;;;5033731;28;20356;-77
2023/06/25 02:45:29;;;;;;;2.33;2.10;;;27.80;46.40;;;;;;5033759;28;20026;-77
2023/06/25 02:47:55;;;;;;;2.08;1.98;;;27.80;46.40;;;;;;5033649;28;20033;-77
2023/06/25 02:50:21;;;;;;;2.42;2.20;;;27.80;46.20;;;;;;5033343;28;20029;-77
2023/06/25 02:52:46;;;;;;;2.60;2.40;;;28.00;61.90;;;;;;5033280;28;20029;-77
2023/06/25 02:55:12;;;;;;;2.47;2.28;;;27.70;46.20;;;;;;5033207;28;20507;-77
2023/06/25 02:57:37;;;;;;;2.40;2.20;;;27.80;62.10;;;;;;5033261;28;20041;-77
2023/06/25 03:00:07;;;;;;;2.38;2.17;;;27.70;46.50;;;;;;5033403;28;20033;-77
2023/06/25 03:02:33;;;;;;;2.70;2.50;;;27.70;46.50;;;;;;5033449;28;20434;-77
2023/06/25 03:04:58;;;;;;;2.10;1.90;;;27.70;46.40;;;;;;5033170;28;20185;-77
2023/06/25 03:07:24;;;;;;;2.97;2.67;;;27.70;46.30;;;;;;5033401;28;20071;-76
2023/06/25 03:09:50;;;;;;;2.08;1.98;;;27.70;46.50;;;;;;5032852;28;20036;-77
2023/06/25 03:12:15;;;;;;;1.73;1.63;;;27.70;46.50;;;;;;4995871;28;1077938;-76
2023/06/25 03:14:41;;;;;;;2.92;2.42;;;28.00;61.90;;;;;;5033874;28;20045;-77
2023/06/25 03:17:07;;;;;;;2.17;1.98;;;27.70;46.40;;;;;;5033952;28;20032;-77
2023/06/25 03:19:33;;;;;;;2.25;2.08;;;27.70;46.40;;;;;;5033917;28;20021;-77
2023/06/25 03:21:59;;;;;;;2.38;2.17;;;27.90;62.40;;;;;;5033701;28;20499;-77
2023/06/25 03:24:25;;;;;;;2.38;2.17;;;27.60;46.30;;;;;;5033630;28;20037;-77
2023/06/25 03:26:51;;;;;;;3.13;2.17;;;27.80;62.00;;;;;;5034054;28;20034;-77
2023/06/25 03:29:16;;;;;;;2.60;2.40;;;27.60;46.50;;;;;;5034331;28;20033;-77
2023/06/25 03:31:43;;;;;;;2.28;2.08;;;27.60;46.40;;;;;;5033803;28;20037;-77
2023/06/25 03:34:08;;;;;;;2.40;2.20;;;27.60;46.30;;;;;;5033629;28;20529;-77
2023/06/25 03:36:34;;;;;;;2.35;2.00;;;27.60;46.30;;;;;;5033803;28;20029;-77
2023/06/25 03:39:00;;;;;;;2.15;2.05;;;27.60;62.30;;;;;;5033701;28;20567;-77
2023/06/25 03:41:25;;;;;;;2.55;2.38;;;27.50;46.60;;;;;;5033605;28;20109;-77
2023/06/25 03:43:51;;;;;;;2.88;2.65;;;27.50;46.30;;;;;;5032846;28;20104;-77
2023/06/25 03:46:17;;;;;;;2.38;2.17;;;27.50;46.50;;;;;;5033371;28;20017;-77
2023/06/25 03:48:43;;;;;;;2.40;2.20;;;27.50;46.60;;;;;;5033361;28;20391;-77
2023/06/25 03:51:09;;;;;;;2.17;2.03;;;27.50;46.40;;;;;;5033382;28;20033;-77
2023/06/25 03:53:38;;;;;;;2.00;1.90;;;27.50;46.60;;;;;;5033171;28;20068;-77
2023/06/25 03:56:03;;;;;;;2.58;2.38;;;27.50;47.20;;;;;;5032933;28;20534;-77
2023/06/25 03:58:29;;;;;;;2.20;2.00;;;27.50;46.70;;;;;;5033632;28;20030;-77
2023/06/25 04:00:55;;;;;;;2.35;2.15;;;27.60;62.20;;;;;;5033444;28;20097;-77
2023/06/25 04:03:20;;;;;;;2.53;2.33;;;27.40;46.60;;;;;;5032918;28;20078;-77
2023/06/25 04:05:47;;;;;;;2.50;2.30;;;27.50;46.60;;;;;;5033124;28;20184;-77
2023/06/25 04:08:12;;;;;;;2.53;2.30;;;27.40;46.70;;;;;;5033264;28;20104;-77
2023/06/25 04:10:39;;;;;;;2.75;2.55;;;27.40;46.60;;;;;;5032878;28;20503;-77
2023/06/25 04:13:05;;;;;;;2.60;2.40;;;27.60;62.50;;;;;;5015080;28;20099;-77
2023/06/25 04:15:30;;;;;;;3.55;2.92;;;27.40;46.50;;;;;;5032745;28;20132;-77
2023/06/25 04:17:56;;;;;;;2.38;2.03;;;27.40;46.60;;;;;;5032867;28;20455;-76
2023/06/25 04:20:25;;;;;;;2.40;2.20;;;27.40;46.50;;;;;;5032650;28;20025;-77
2023/06/25 04:22:50;;;;;;;2.20;1.98;;;28.30;47.80;;;;;;5033060;28;20336;-77
2023/06/25 04:25:16;;;;;;;2.25;2.05;;;27.30;46.60;;;;;;5032715;28;20108;-76
2023/06/25 04:27:41;;;;;;;3.47;2.22;;;27.30;46.80;;;;;;5033015;28;20047;-72
2023/06/25 04:30:07;;;;;;;2.30;2.10;;;27.30;46.70;;;;;;5032463;28;20095;-72
2023/06/25 04:32:33;;;;;;;2.28;2.08;;;27.30;46.70;;;;;;5032407;28;20029;-72
2023/06/25 04:34:59;;;;;;;2.13;2.03;;;27.30;62.00;;;;;;5032138;28;20056;-72
2023/06/25 04:37:24;;;;;;;2.83;2.33;;;27.30;46.60;;;;;;5032306;28;20029;-72
2023/06/25 04:39:50;;;;;;;2.30;2.10;;;27.30;46.80;;;;;;5032234;28;20369;-72
2023/06/25 04:42:16;;;;;;;2.50;2.30;;;27.30;46.60;;;;;;5032096;28;20057;-74
2023/06/25 04:44:41;;;;;;;3.22;2.40;;;27.30;46.80;;;;;;5032155;28;20104;-74
2023/06/25 04:47:07;;;;;;;2.60;2.40;;;27.00;62.30;;;;;;5032181;28;20128;-74
2023/06/25 04:49:32;;;;;;;2.08;1.83;;;27.20;46.90;;;;;;5032300;28;20025;-74
2023/06/25 04:51:58;;;;;;;2.00;1.90;;;27.20;46.90;;;;;;5032152;28;20104;-73
2023/06/25 04:54:23;;;;;;;2.38;2.17;;;27.30;46.80;;;;;;5032455;28;20045;-77
2023/06/25 04:56:49;;;;;;;2.67;2.47;;;27.30;46.80;;;;;;5031173;28;20076;-77
2023/06/25 04:59:15;;;;;;;2.67;2.22;;;27.20;62.60;;;;;;5032127;28;20148;-76
2023/06/25 05:01:40;;;;;;;2.03;1.90;;;27.20;47.00;;;;;;5031916;28;20033;-76
2023/06/25 05:04:06;;;;;;;2.10;2.00;;;27.20;46.90;;;;;;5032026;28;20372;-76
2023/06/25 05:06:32;;;;;;;2.25;2.15;;;27.20;47.00;;;;;;5031905;28;20033;-73
2023/06/25 05:08:57;;;;;;;1.88;1.77;;;27.20;46.90;;;;;;5031798;28;20388;-72
2023/06/25 05:11:23;;;;;;;2.30;2.10;;;27.20;46.70;;;;;;5031543;28;20557;-73
2023/06/25 05:13:49;;;;;;;2.97;2.42;;;;;;;;;;5031768;28;20017;-72
2023/06/25 05:16:15;;;;;;;1.92;1.83;;;27.20;46.40;;;;;;5031612;28;20108;-73
2023/06/25 05:18:42;;;;;;;1.73;1.63;;;27.20;46.90;;;;;;5031456;28;20033;-72
2023/06/25 05:21:08;;;;;;;1.88;1.77;;;27.20;47.00;;;;;;5031598;28;20484;-72
2023/06/25 05:23:44;;;;;;;2.15;1.83;;;27.20;47.00;;;;;;5031959;28;20105;-72
2023/06/25 05:26:11;;;;;;;2.10;1.90;;;27.20;46.90;;;;;;5031496;28;20141;-72
2023/06/25 05:28:38;;;;;;;3.45;2.47;;;27.10;47.00;;;;;;5031483;28;20105;-72
2023/06/25 05:31:05;;;;;;;2.60;2.05;;;27.10;47.00;;;;;;5031462;28;20514;-72
2023/06/25 05:33:31;;;;;;;2.08;1.98;;;27.10;47.00;;;;;;5013701;28;20045;-72
2023/06/25 05:35:56;;;;;;;2.58;2.38;;;27.10;47.10;;;;;;5031544;28;20127;-77
2023/06/25 05:38:22;;;;;;;2.08;1.98;;;27.10;47.20;;;;;;5031592;28;20025;-77
2023/06/25 05:40:48;;;;;;;3.33;2.40;;;27.10;47.20;;;;;;5031345;28;20033;-76
2023/06/25 05:43:13;;;;;;;1.85;1.75;;;27.10;47.20;;;;;;5031671;28;20027;-77
2023/06/25 05:45:39;;;;;;;2.35;2.17;;;27.10;47.30;;;;;;5031808;28;20419;-77
2023/06/25 05:48:06;;;;;;;1.88;1.77;;;27.10;47.20;;;;;;5031383;28;20021;-77
2023/06/25 05:50:32;;;;;;;2.40;2.28;;;27.10;47.30;;;;;;5031335;28;20029;-77
2023/06/25 05:52:57;;;;;;;2.15;2.05;;;27.10;47.30;;;;;;5031798;28;20024;-72
2023/06/25 05:55:23;;;;;;;2.20;1.98;;;27.10;47.40;;;;;;5031103;28;20041;-73
2023/06/25 05:57:49;;;;;;;2.50;2.30;;;27.10;47.30;;;;;;5031113;28;20021;-73
2023/06/25 06:00:14;;;;;;;2.22;2.03;;;27.10;47.50;;;;;;5031233;28;20088;-72
2023/06/25 06:02:40;;;;;;;2.00;1.90;;;27.10;47.40;;;;;;5031530;28;20022;-76
2023/06/25 06:05:06;;;;;;;2.00;1.90;;;27.20;47.50;;;;;;5031138;28;20029;-72
2023/06/25 06:07:32;;;;;;;2.00;1.90;;;27.10;47.30;;;;;;5032325;28;20034;-72
2023/06/25 06:09:58;;;;;;;1.80;1.70;;;27.20;47.40;;;;;;5035212;28;20032;-72
2023/06/25 06:12:24;;;;;;;2.67;2.47;;;27.20;47.40;;;;;;5034892;28;20415;-72
2023/06/25 06:14:50;;;;;;;2.13;1.83;;;27.20;47.40;;;;;;5034643;28;20033;-73
2023/06/25 06:17:15;;;;;;;2.20;2.10;;;27.20;47.40;;;;;;5034895;28;20029;-72
2023/06/25 06:19:41;;;;;;;2.30;2.10;;;27.20;63.20;;;;;;5035440;28;20091;-72
2023/06/25 06:22:07;;;;;;;2.30;2.10;;;27.10;47.50;;;;;;5034883;28;20577;-72
2023/06/25 06:24:32;;;;;;;2.13;2.03;;;27.20;47.60;;;;;;5034773;28;20035;-73
2023/06/25 06:26:58;;;;;;;1.95;1.80;;;27.10;47.60;;;;;;5034808;28;20110;-72
2023/06/25 06:29:24;;;;;;;1.95;1.85;;;27.10;47.40;;;;;;5034742;28;20033;-72
2023/06/25 06:31:49;;;;;;;2.97;1.88;;;27.10;47.60;;;;;;5034890;28;20053;-77
2023/06/25 06:34:15;;;;;;;2.45;2.25;;;27.10;47.60;;;;;;5034677;28;20043;-77
2023/06/25 06:36:40;;;;;;;2.28;2.10;;;27.10;47.70;;;;;;5034689;28;20031;-76
2023/06/25 06:39:06;;;;;;;1.90;1.80;;;27.10;47.70;;;;;;5034646;28;20033;-77
2023/06/25 06:41:32;;;;;;;2.08;1.98;;;27.10;47.70;;;;;;5034729;28;20052;-78
2023/06/25 06:44:12;;;;;;;2.17;1.98;;;27.10;47.70;;;;;;5034535;28;20022;-77
2023/06/25 06:46:38;;;;;;;2.03;1.92;;;27.10;47.40;;;;;;5035181;28;20161;-76
2023/06/25 06:49:04;;;;;;;1.92;1.77;;;27.10;47.70;;;;;;5034994;28;20500;-71
2023/06/25 06:51:29;;;;;;;2.10;2.00;;;27.20;47.70;;;;;;5034409;28;20041;-69
2023/06/25 06:53:55;;;;;;;2.30;2.15;;;27.10;47.70;;;;;;5034085;28;20113;-70
2023/06/25 06:56:21;;;;;;;1.95;1.85;;;27.20;47.80;;;;;;5034186;28;20076;-71
2023/06/25 06:58:46;;;;;;;2.25;2.05;;;27.10;47.60;;;;;;5034303;28;20467;-72
2023/06/25 07:01:13;;;;;;;1.92;1.80;;;27.10;47.70;;;;;;5034613;28;20025;-71
2023/06/25 07:03:38;;;;;;;1.60;1.50;;;27.10;47.70;;;;;;5034495;28;20452;-73
2023/06/25 07:06:04;;;;;;;2.38;2.00;;;27.10;47.80;;;;;;5034227;28;20065;-73
2023/06/25 07:08:29;;;;;;;2.63;2.42;;;27.10;47.70;;;;;;5034231;28;20110;-73
2023/06/25 07:10:55;;;;;;;2.22;2.03;;;27.10;47.70;;;;;;5033997;28;20117;-73
2023/06/25 07:13:21;;;;;;;3.20;2.10;;;27.20;47.80;;;;;;5034211;28;20025;-73
2023/06/25 07:15:46;;;;;;;2.90;2.38;;;27.20;47.80;;;;;;5034129;28;20048;-74
2023/06/25 07:18:12;;;;;;;2.40;2.20;;;27.10;47.70;;;;;;5034586;28;20029;-76
2023/06/25 07:20:38;;;;;;;3.53;2.22;;;27.20;47.80;;;;;;5033528;28;20056;-78
2023/06/25 07:23:03;;;;;;;2.67;2.08;;;27.20;47.80;;;;;;5034416;28;20034;-77
2023/06/25 07:25:29;;;;;;;2.40;2.20;;;27.20;47.80;;;;;;5034174;28;20033;-77
2023/06/25 07:27:54;;;;;;;2.95;2.45;;;27.20;47.80;;;;;;5034104;28;20018;-76
2023/06/25 07:30:21;;;;;;;2.78;2.58;;;27.30;47.80;;;;;;5033925;28;20113;-73
2023/06/25 07:32:47;;;;;;;2.53;2.33;;;27.30;47.80;;;;;;5033456;28;20026;-72
2023/06/25 07:35:12;;;;;;;5.15;2.70;;;27.30;47.80;;;;;;5033608;28;20506;-71
2023/06/25 07:37:40;;;;;;;3.00;2.70;;;27.30;47.80;;;;;;5033689;28;20037;-71
2023/06/25 07:40:07;;;;;;;3.95;2.97;;;27.30;47.90;;;;;;5033493;28;20097;-71
2023/06/25 07:42:33;;;;;;;3.15;2.53;;;27.30;47.80;;;;;;5033628;28;20032;-74
2023/06/25 07:44:59;;;;;;;3.97;3.38;;;27.30;47.80;;;;;;5033385;28;20060;-72
2023/06/25 07:47:25;;;;;;;3.30;3.00;;;27.40;48.00;;;;;;5033789;28;20021;-75
2023/06/25 07:49:51;;;;;;;3.08;2.78;;;27.40;47.90;;;;;;5033419;28;20032;-75
2023/06/25 07:52:18;;;;;;;3.63;3.10;;;27.40;48.00;;;;;;5033591;28;20025;-75
2023/06/25 07:54:44;;;;;;;3.92;3.10;;;27.40;47.90;;;;;;5033543;28;20045;-75
2023/06/25 07:57:10;;;;;;;3.67;3.20;;;27.40;47.90;;;;;;5033529;28;20021;-75
2023/06/25 07:59:36;;;;;;;4.38;3.10;;;27.40;48.00;;;;;;5033582;28;20379;-75
2023/06/25 08:02:02;;;;;;;3.05;2.75;;;27.40;47.90;;;;;;5033105;28;20021;-75
2023/06/25 08:04:28;;;;;;;3.38;3.08;;;27.50;48.20;;;;;;5033799;28;20018;-74
2023/06/25 08:06:53;;;;;;;4.18;3.20;;;27.50;48.10;;;;;;5033156;28;20497;-75
2023/06/25 08:09:19;;;;;;;3.85;3.00;;;27.50;48.30;;;;;;5033110;28;20032;-74
2023/06/25 08:11:44;;;;;;;2.88;2.67;;;27.50;48.30;;;;;;5032862;28;20049;-75
2023/06/25 08:14:10;;;;;;;3.05;2.78;;;27.50;48.40;;;;;;5032991;28;20041;-79
2023/06/25 08:16:35;;;;;;;3.10;2.80;;;27.50;48.50;;;;;;5033018;28;20039;-74
2023/06/25 08:19:01;;;;;;;2.97;2.53;;;27.60;48.70;;;;;;5032922;28;20026;-74
2023/06/25 08:21:27;;;;;;;5.78;3.30;;;27.60;48.70;;;;;;5032848;28;20029;-74
2023/06/25 08:23:52;;;;;;;3.42;3.13;;;27.60;49.50;;;;;;5032986;28;20125;-75
2023/06/25 08:26:18;;;;;;;3.05;2.85;;;27.60;49.00;;;;;;5032883;28;20551;-74
2023/06/25 08:28:44;;;;;;;3.38;2.85;;;27.60;48.90;;;;;;5032788;28;20603;-74
2023/06/25 08:31:10;;;;;;;3.00;2.75;;;27.60;49.10;;;;;;5032659;28;20110;-75
2023/06/25 08:33:37;;;;;;;3.35;3.05;;;27.70;49.20;;;;;;5033353;28;20057;-75
2023/06/25 08:36:02;;;;;;;3.25;2.65;;;27.70;49.30;;;;;;5032474;28;20037;-75
2023/06/25 08:38:30;;;;;;;4.43;3.28;;;27.70;49.30;;;;;;5032559;28;20083;-76
2023/06/25 08:40:56;;;;;;;2.97;2.70;;;27.70;49.40;;;;;;5032916;28;20431;-77
2023/06/25 08:43:22;;;;;;;3.10;2.80;;;27.80;49.60;;;;;;5032938;28;20048;-76
2023/06/25 08:45:47;;;;;;;5.15;3.25;;;27.80;49.70;;;;;;5032632;28;20028;-75
2023/06/25 08:48:13;;;;;;;2.85;2.65;;;27.80;49.70;;;;;;5032576;28;20120;-76
2023/06/25 08:50:42;;;;;;;3.20;2.90;;;27.80;49.70;;;;;;5032422;28;20032;-76
2023/06/25 08:53:08;;;;;;;3.58;3.00;;;27.90;49.90;;;;;;5032313;28;20029;-76
2023/06/25 08:55:35;;;;;;;4.00;3.10;;;27.90;50.10;;;;;;5032273;28;20041;-76
2023/06/25 08:58:00;;;;;;;3.45;3.15;;;27.90;50.00;;;;;;5032301;28;20099;-75
2023/06/25 09:00:26;;;;;;;3.58;2.70;;;28.00;65.50;;;;;;5032752;28;20065;-74
2023/06/25 09:02:53;;;;;;;4.18;2.90;;;28.00;50.20;;;;;;5032383;28;20024;-74
2023/06/25 09:05:27;;;;;;;3.05;2.75;;;28.00;50.40;;;;;;5032256;28;20596;-76
2023/06/25 09:07:53;;;;;;;3.95;2.75;;;28.10;50.80;;;;;;5032115;28;20071;-73
2023/06/25 09:10:20;;;;;;;2.97;2.70;;;28.20;65.80;;;;;;5032169;28;20104;-74
2023/06/25 09:12:50;;;;;;;3.25;2.90;;;28.20;50.60;;;;;;5031879;28;20040;-75
2023/06/25 09:15:22;;;;;;;;;;;28.20;50.80;;;;;;5033699;28;20029;-76
2023/06/25 09:17:48;;;;;;;3.70;2.78;;;28.30;50.80;;;;;;5033861;28;19905;-75
2023/06/25 09:20:14;;;;;;;2.88;2.67;;;28.30;50.80;;;;;;5031816;28;20055;-79
2023/06/25 09:22:53;;;;;;;5.07;2.75;;;28.40;50.70;;;;;;5031763;28;20524;-79
2023/06/25 09:25:29;;;;;;;2.85;2.65;;;28.40;50.50;;;;;;5031832;28;20100;-77
2023/06/25 09:28:00;;;;;;;3.03;2.70;;;28.50;50.70;;;;;;5031723;28;20068;-78
2023/06/25 09:30:26;;;;;;;2.50;2.30;;;28.60;50.60;;;;;;5032152;28;20029;-73
2023/06/25 09:32:52;;;;;;;3.50;2.25;;;28.70;50.70;;;;;;5031785;28;20116;-73
2023/06/25 09:35:19;;;;;;;3.15;2.70;;;28.70;50.60;;;;;;5031877;28;20424;-73
2023/06/25 09:37:45;;;;;;;3.42;2.70;;;28.80;50.70;;;;;;5031635;28;20033;-73
2023/06/25 09:40:11;;;;;;;2.65;2.40;;;28.80;50.70;;;;;;5031660;28;20029;-72
2023/06/25 09:42:41;;;;;;;2.95;2.65;;;28.90;50.70;;;;;;5034947;28;20537;-72
2023/06/25 09:45:09;;;;;;;2.55;2.35;;;29.00;50.80;;;;;;5038160;28;20034;-72
2023/06/25 09:47:40;;;;;;;4.30;3.30;;;29.00;50.80;;;;;;5038336;28;20033;-73
2023/06/25 09:50:12;;;;;;;2.78;2.58;;;29.10;50.80;;;;;;5038161;28;20103;-74
2023/06/25 09:52:40;;;;;;;3.80;2.95;;;29.20;50.90;;;;;;5038139;28;20048;-73
2023/06/25 09:55:10;;;;;;;3.22;2.53;;;29.20;50.90;;;;;;5038000;28;20128;-72
2023/06/25 09:57:35;;;;;;;3.85;3.00;;;29.30;51.00;;;;;;5038414;28;20017;-72
2023/06/25 10:00:03;;;;;;;4.95;2.90;;;29.30;50.90;;;;;;5038163;28;20025;-72
2023/06/25 10:02:28;;;;;;;2.88;2.40;;;29.40;51.00;;;;;;5038109;28;20067;-72
2023/06/25 10:04:54;;;;;;;3.33;2.47;;;29.40;50.90;;;;;;5038064;28;20437;-72
2023/06/25 10:07:21;;;;;;;3.83;2.70;;;29.50;51.00;;;;;;5038049;28;20061;-72
2023/06/25 10:09:54;;;;;;;4.13;2.58;;;29.60;51.00;;;;;;5037917;28;20037;-72
2023/06/25 10:12:20;;;;;;;3.65;2.90;;;29.60;50.90;;;;;;5037848;28;20041;-72
2023/06/25 10:14:49;;;;;;;3.47;2.80;;;29.70;50.90;;;;;;5038107;28;20057;-71
2023/06/25 10:17:19;;;;;;;5.30;2.50;;;29.80;50.90;;;;;;5038681;28;20025;-85
2023/06/25 10:20:11;;;;;;;2.50;2.30;;;29.90;50.90;;;;;;5038960;28;20033;-82
2023/06/25 10:22:38;;;;;;;4.07;2.70;;;29.90;50.40;;;;;;5033296;28;20052;-85
2023/06/25 10:25:04;;;;;;;3.00;2.78;;;30.00;50.80;;;;;;5038220;28;20033;-80
2023/06/25 10:27:30;;;;;;;5.35;2.78;;;29.90;65.40;;;;;;5038207;28;20029;-83
2023/06/25 10:29:58;;;;;;;2.83;2.63;;;30.10;50.80;;;;;;5038401;28;20021;-91
2023/06/25 10:32:26;;;;;;;3.30;3.00;;;30.20;50.70;;;;;;5037906;28;20068;-86
2023/06/25 10:34:59;;;;;;;3.08;2.88;;;30.30;50.70;;;;;;5037828;28;20037;-85
2023/06/25 10:37:34;;;;;;;2.80;2.58;;;30.40;50.70;;;;;;5038128;28;20033;-81
2023/06/25 10:40:09;;;;;;;2.95;2.75;;;30.40;50.60;;;;;;5037803;28;20053;-78
2023/06/25 10:42:36;;;;;;;4.07;2.40;;;30.50;50.80;;;;;;5038091;28;20026;-78
2023/06/25 10:45:04;;;;;;;3.25;2.90;;;30.50;50.60;;;;;;5037978;28;20075;-81
2023/06/25 10:47:30;;;;;;;2.20;2.10;;;30.60;50.70;;;;;;5037897;28;20476;-86
2023/06/25 10:49:56;;;;;;;3.03;2.53;;;30.70;50.70;;;;;;5038241;28;20112;-86
2023/06/25 10:52:22;;;;;;;2.88;2.63;;;30.80;51.20;;;;;;5042013;28;20022;-95
2023/06/25 10:54:48;;;;;;;5.70;2.65;;;30.80;50.50;;;;;;5037701;28;20044;-85
2023/06/25 10:57:16;;;;;;;2.90;2.70;;;30.90;51.20;;;;;;5035026;28;20033;-89
2023/06/25 10:59:45;;;;;;;3.25;2.70;;;30.90;50.40;;;;;;5034552;28;20164;-87
2023/06/25 11:02:19;;;;;;;2.75;2.55;;;31.00;50.40;;;;;;5034667;28;20471;-82
2023/06/25 11:04:53;;;;;;;3.40;2.75;;;31.10;50.40;;;;;;5017328;28;20373;-71
2023/06/25 11:07:19;;;;;;;3.13;2.70;;;31.20;50.40;;;;;;5034201;28;20095;-72
2023/06/25 11:09:50;;;;;;;3.28;2.97;;;31.20;50.20;;;;;;5034160;28;20036;-73
2023/06/25 11:12:17;;;;;;;4.30;2.55;;;31.30;50.20;;;;;;5033853;28;20045;-72
2023/06/25 11:14:44;;;;;;;3.30;2.85;;;31.40;50.20;;;;;;5034108;28;20109;-76
2023/06/25 11:17:09;;;;;;;3.47;2.67;;;31.50;50.10;;;;;;5034083;28;20044;-79
2023/06/25 11:19:36;;;;;;;3.13;2.70;;;;;;;;;;5034092;28;20025;-78
2023/06/25 11:22:05;;;;;;;3.13;2.55;;;31.60;49.50;;;;;;5033937;28;20091;-77
2023/06/25 11:24:37;;;;;;;3.15;2.80;;;31.70;50.10;;;;;;5034071;28;20430;-84
2023/06/25 11:27:04;;;;;;;3.17;2.92;;;31.70;50.60;;;;;;5033862;28;20104;-79
2023/06/25 11:29:37;;;;;;;3.25;2.78;;;31.80;50.20;;;;;;5016069;28;20464;-79
2023/06/25 11:32:08;;;;;;;2.90;2.70;;;31.90;50.20;;;;;;5034333;28;20017;-85
2023/06/25 11:34:34;;;;;;;4.32;2.42;;;31.90;49.90;;;;;;5034005;28;20048;-81
2023/06/25 11:37:11;;;;;;;2.80;2.60;;;32.00;49.90;;;;;;5033837;28;20014;-77
2023/06/25 11:39:48;;;;;;;2.50;2.30;;;32.10;49.90;;;;;;5033823;28;20029;-78
2023/06/25 11:42:22;;;;;;;2.63;2.42;;;32.20;49.90;;;;;;5015648;28;20318;-77
2023/06/25 11:44:59;;;;;;;3.38;2.63;;;31.20;49.30;;;;;;5033665;28;20025;-72
2023/06/25 11:47:25;;;;;;;3.08;2.60;;;32.30;49.80;;;;;;5033763;28;20092;-71
2023/06/25 11:49:53;;;;;;;6.47;2.60;;;32.40;49.80;;;;;;5033798;28;20021;-71
2023/06/25 11:52:20;;;;;;;9.73;2.50;;;32.40;49.70;;;;;;5033660;28;20105;-72
2023/06/25 11:54:46;;;;;;;5.30;2.78;;;32.50;49.70;;;;;;5033282;28;20506;-72
2023/06/25 11:57:12;;;;;;;2.85;2.30;;;32.50;49.50;;;;;;5033685;28;20092;-72
2023/06/25 11:59:38;;;;;;;4.38;2.80;;;32.60;49.70;;;;;;5033373;28;20030;-72
2023/06/25 12:02:04;;;;;;;5.35;2.35;;;32.60;49.80;;;;;;5034023;28;20070;-81
2023/06/25 12:04:30;;;;;;;3.95;2.72;;;;;;;;;;5014794;28;20040;-77
2023/06/25 12:06:57;;;;;;;4.45;2.50;;;;;;;;;;5032766;28;20148;-76
2023/06/25 12:09:23;;;;;;;5.72;3.03;;;;;;;;;;5032912;28;20560;-79
2023/06/25 12:11:49;;;;;;;11.82;3.03;;;32.90;48.90;;;;;;5032915;28;20069;-71
2023/06/25 12:14:15;;;;;;;10.95;2.80;;;32.90;50.10;;;;;;5032900;28;20021;-71
2023/06/25 12:16:41;;;;;;;7.25;2.80;;;33.00;50.00;;;;;;5033271;28;20028;-71
2023/06/25 12:19:08;;;;;;;4.47;2.80;;;33.00;49.50;;;;;;5033043;28;20049;-72
2023/06/25 12:25:05;;;;;;;3.97;2.72;;;33.20;49.30;;;;;;5033122;28;20037;-72
2023/06/25 12:27:30;;;;;;;4.85;2.75;;;33.30;48.90;;;;;;5032805;28;20078;-72
2023/06/25 12:29:56;;;;;;;3.28;2.35;;;33.30;48.70;;;;;;5033179;28;20392;-78
2023/06/25 12:32:21;;;;;;;2.88;2.45;;;33.40;48.70;;;;;;5032738;28;20065;-77
2023/06/25 12:34:47;;;;;;;4.10;2.78;;;33.50;48.70;;;;;;5032746;28;20037;-77
2023/06/25 12:37:13;;;;;;;3.10;2.50;;;33.50;48.20;;;;;;5032688;28;20037;-77
2023/06/25 12:39:38;;;;;;;3.20;2.60;;;33.60;48.10;;;;;;5032629;28;20419;-78
2023/06/25 12:42:04;;;;;;;4.28;2.50;;;33.60;48.00;;;;;;5032651;28;20131;-72
2023/06/25 12:44:30;;;;;;;3.88;2.55;;;33.70;48.10;;;;;;5032297;28;20104;-72
2023/06/25 12:46:55;;;;;;;3.97;2.90;;;33.70;47.90;;;;;;5032474;28;20040;-72
2023/06/25 12:49:21;;;;;;;3.42;1.95;;;33.70;47.70;;;;;;5032338;28;20103;-71